createdAt,value
2023-03-10T00:01:02.544Z,80.72
2023-03-10T00:02:24.029Z,80.77
2023-03-10T00:03:47.372Z,80.66
2023-03-10T00:05:12.255Z,80.72
2023-03-10T00:06:37.704Z,80.70
2023-03-10T00:07:59.086Z,80.89
2023-03-10T00:09:21.093Z,80.96
2023-03-10T00:10:43.436Z,81.00
2023-03-10T00:12:06.077Z,81.11
2023-03-10T00:13:27.186Z,81.05
2023-03-10T00:14:50.841Z,81.23
2023-03-10T00:16:18.852Z,81.55
2023-03-10T00:17:41.639Z,81.18
2023-03-10T00:19:03.976Z,81.49
2023-03-10T00:20:29.527Z,81.25
2023-03-10T00:21:52.206Z,81.22
2023-03-10T00:23:15.254Z,81.04
2023-03-10T00:24:36.380Z,80.82
2023-03-10T00:26:00.119Z,81.04
2023-03-10T00:27:22.768Z,80.87
2023-03-10T00:28:48.177Z,81.00
2023-03-10T00:30:12.310Z,81.03
2023-03-10T00:31:36.433Z,80.65
2023-03-10T00:32:57.704Z,80.90
2023-03-10T00:34:20.262Z,80.98
2023-03-10T00:35:41.539Z,80.62
2023-03-10T00:37:05.385Z,80.75
2023-03-10T00:38:27.083Z,80.69
2023-03-10T00:39:53.050Z,80.81
2023-03-10T00:41:17.270Z,80.92
2023-03-10T00:42:39.790Z,81.07
2023-03-10T00:44:02.356Z,81.11
2023-03-10T00:45:24.997Z,81.29
2023-03-10T00:46:47.135Z,81.33
2023-03-10T00:48:11.509Z,81.35
2023-03-10T00:49:34.454Z,81.37
2023-03-10T00:50:58.224Z,81.38
2023-03-10T00:52:20.507Z,81.54
2023-03-10T00:53:43.697Z,81.25
2023-03-10T00:55:06.036Z,81.42
2023-03-10T00:56:29.117Z,81.25
2023-03-10T00:57:51.528Z,81.19
2023-03-10T00:59:14.041Z,81.45
2023-03-10T01:00:38.181Z,81.23
2023-03-10T01:02:00.412Z,81.11
2023-03-10T01:03:27.633Z,81.17
2023-03-10T01:04:50.102Z,81.26
2023-03-10T01:06:13.429Z,81.05
2023-03-10T01:07:35.899Z,80.97
2023-03-10T01:08:56.948Z,80.75
2023-03-10T01:10:19.469Z,81.01
2023-03-10T01:11:41.882Z,80.88
2023-03-10T01:13:03.483Z,80.85
2023-03-10T01:14:25.710Z,81.05
2023-03-10T01:16:02.838Z,80.75
2023-03-10T01:17:25.538Z,80.69
2023-03-10T01:18:47.727Z,80.98
2023-03-10T01:20:15.383Z,80.97
2023-03-10T01:21:41.417Z,81.01
2023-03-10T01:23:02.957Z,81.01
2023-03-10T01:24:25.215Z,80.92
2023-03-10T01:25:46.767Z,81.10
2023-03-10T01:27:10.726Z,81.07
2023-03-10T01:28:33.132Z,81.22
2023-03-10T01:29:55.331Z,81.16
2023-03-10T01:31:20.392Z,81.23
2023-03-10T01:32:42.024Z,81.25
2023-03-10T01:34:04.782Z,81.26
2023-03-10T01:35:26.035Z,81.42
2023-03-10T01:36:48.148Z,81.53
2023-03-10T01:38:11.070Z,81.83
2023-03-10T01:39:33.547Z,81.51
2023-03-10T01:40:55.411Z,81.65
2023-03-10T01:42:18.351Z,81.69
2023-03-10T01:43:42.244Z,81.68
2023-03-10T01:45:11.322Z,81.82
2023-03-10T01:46:47.123Z,81.85
2023-03-10T01:48:19.349Z,81.93
2023-03-10T01:49:47.128Z,82.30
2023-03-10T01:51:08.540Z,82.14
2023-03-10T01:52:33.557Z,82.20
2023-03-10T01:53:55.242Z,82.30
2023-03-10T01:55:21.722Z,82.40
2023-03-10T01:56:43.740Z,82.43
2023-03-10T01:58:08.340Z,82.65
2023-03-10T01:59:31.661Z,82.63
2023-03-10T02:00:55.921Z,82.68
2023-03-10T02:02:20.271Z,82.65
2023-03-10T02:03:50.933Z,82.76
2023-03-10T02:05:18.523Z,82.75
2023-03-10T02:06:47.417Z,82.73
2023-03-10T02:08:10.369Z,82.75
2023-03-10T02:09:36.588Z,82.92
2023-03-10T02:10:59.834Z,83.02
2023-03-10T02:12:22.674Z,83.73
2023-03-10T02:13:44.191Z,83.44
2023-03-10T02:15:07.773Z,83.51
2023-03-10T02:16:29.288Z,83.38
2023-03-10T02:17:54.989Z,83.54
2023-03-10T02:19:37.277Z,83.59
2023-03-10T02:21:09.767Z,83.60
2023-03-10T02:22:30.690Z,83.52
2023-03-10T02:24:02.028Z,83.56
2023-03-10T02:25:37.390Z,83.57
2023-03-10T02:27:03.477Z,83.63
2023-03-10T02:28:30.341Z,83.67
2023-03-10T02:29:59.997Z,83.73
2023-03-10T02:31:28.456Z,83.62
2023-03-10T02:32:54.472Z,83.84
2023-03-10T02:34:20.788Z,83.58
2023-03-10T02:36:03.157Z,83.54
2023-03-10T02:37:28.261Z,83.33
2023-03-10T02:38:52.878Z,83.22
2023-03-10T02:40:34.073Z,83.31
2023-03-10T02:42:02.328Z,83.48
2023-03-10T02:43:28.056Z,83.28
2023-03-10T02:44:58.172Z,83.33
2023-03-10T02:46:20.788Z,83.24
2023-03-10T02:47:43.499Z,83.21
2023-03-10T02:49:07.903Z,83.10
2023-03-10T02:50:38.913Z,83.09
2023-03-10T02:52:04.501Z,83.24
2023-03-10T02:53:29.357Z,83.27
2023-03-10T02:54:52.035Z,83.18
2023-03-10T02:56:17.336Z,82.82
2023-03-10T02:57:41.691Z,83.00
2023-03-10T02:59:04.931Z,82.85
2023-03-10T03:00:30.192Z,83.02
2023-03-10T03:01:52.793Z,82.82
2023-03-10T03:03:16.681Z,82.66
2023-03-10T03:04:43.319Z,82.61
2023-03-10T03:06:06.435Z,82.48
2023-03-10T03:07:29.811Z,82.52
2023-03-10T03:08:52.993Z,82.30
2023-03-10T03:10:17.210Z,82.27
2023-03-10T03:11:39.898Z,82.37
2023-03-10T03:13:03.987Z,82.45
2023-03-10T03:14:26.604Z,82.08
2023-03-10T03:15:51.104Z,82.03
2023-03-10T03:17:14.116Z,82.02
2023-03-10T03:18:37.129Z,81.92
2023-03-10T03:20:00.046Z,81.85
2023-03-10T03:21:25.805Z,81.68
2023-03-10T03:22:49.172Z,81.59
2023-03-10T03:24:11.762Z,81.69
2023-03-10T03:25:36.416Z,81.53
2023-03-10T03:27:03.545Z,81.52
2023-03-10T03:28:27.732Z,81.34
2023-03-10T03:29:49.308Z,81.37
2023-03-10T03:31:21.389Z,81.32
2023-03-10T03:32:45.962Z,81.34
2023-03-10T03:34:07.957Z,81.02
2023-03-10T03:35:33.046Z,81.05
2023-03-10T03:36:55.412Z,81.23
2023-03-10T03:38:22.287Z,81.04
2023-03-10T03:39:45.086Z,81.03
2023-03-10T03:41:08.716Z,80.92
2023-03-10T03:42:32.467Z,81.25
2023-03-10T03:43:54.846Z,81.02
2023-03-10T03:45:18.254Z,80.97
2023-03-10T03:46:42.517Z,81.04
2023-03-10T03:48:05.195Z,80.74
2023-03-10T03:49:30.019Z,81.11
2023-03-10T03:50:52.204Z,80.87
2023-03-10T03:52:20.925Z,80.95
2023-03-10T03:53:42.324Z,81.00
2023-03-10T03:55:05.580Z,80.91
2023-03-10T03:56:28.488Z,80.87
2023-03-10T03:57:54.258Z,80.86
2023-03-10T03:59:17.047Z,80.77
2023-03-10T04:00:40.315Z,80.67
2023-03-10T04:02:06.281Z,80.71
2023-03-10T04:03:27.733Z,80.65
2023-03-10T04:04:50.206Z,80.89
2023-03-10T04:06:12.706Z,80.93
2023-03-10T04:07:34.645Z,80.97
2023-03-10T04:08:58.820Z,80.79
2023-03-10T04:10:27.120Z,80.73
2023-03-10T04:11:49.597Z,80.82
2023-03-10T04:13:12.073Z,80.73
2023-03-10T04:14:34.959Z,80.59
2023-03-10T04:15:57.994Z,80.48
2023-03-10T04:17:23.265Z,80.50
2023-03-10T04:18:46.132Z,80.43
2023-03-10T04:20:13.559Z,80.36
2023-03-10T04:21:39.080Z,80.54
2023-03-10T04:23:02.222Z,80.22
2023-03-10T04:24:28.301Z,80.23
2023-03-10T04:25:49.864Z,80.16
2023-03-10T04:27:15.769Z,79.94
2023-03-10T04:28:39.633Z,80.03
2023-03-10T04:30:02.113Z,79.91
2023-03-10T04:31:25.398Z,79.85
2023-03-10T04:32:49.463Z,79.65
2023-03-10T04:34:13.647Z,79.76
2023-03-10T04:35:36.314Z,79.70
2023-03-10T04:36:57.721Z,79.66
2023-03-10T04:38:20.129Z,79.68
2023-03-10T04:39:42.398Z,79.43
2023-03-10T04:41:05.353Z,79.40
2023-03-10T04:42:33.436Z,79.56
2023-03-10T04:43:56.216Z,79.32
2023-03-10T04:45:19.058Z,79.23
2023-03-10T04:46:41.575Z,79.24
2023-03-10T04:48:09.236Z,79.04
2023-03-10T04:49:30.540Z,79.11
2023-03-10T04:50:58.743Z,79.21
2023-03-10T04:52:23.584Z,79.11
2023-03-10T04:53:46.356Z,78.96
2023-03-10T04:55:09.556Z,78.99
2023-03-10T04:56:31.776Z,78.82
2023-03-10T04:57:54.354Z,78.81
2023-03-10T04:59:15.653Z,78.79
2023-03-10T05:00:41.364Z,78.71
2023-03-10T05:02:07.756Z,78.72
2023-03-10T05:03:30.690Z,78.57
2023-03-10T05:04:53.353Z,78.54
2023-03-10T05:06:19.573Z,78.45
2023-03-10T05:07:48.501Z,78.71
2023-03-10T05:09:11.237Z,78.61
2023-03-10T05:10:34.115Z,78.41
2023-03-10T05:11:55.479Z,78.33
2023-03-10T05:13:17.974Z,78.36
2023-03-10T05:14:40.735Z,78.29
2023-03-10T05:16:03.422Z,78.43
2023-03-10T05:17:29.528Z,78.34
2023-03-10T05:18:54.219Z,78.26
2023-03-10T05:20:21.372Z,78.31
2023-03-10T05:21:43.732Z,78.58
2023-03-10T05:23:06.286Z,78.27
2023-03-10T05:24:27.642Z,78.19
2023-03-10T05:25:50.485Z,78.02
2023-03-10T05:27:15.173Z,77.93
2023-03-10T05:28:39.041Z,78.14
2023-03-10T05:30:01.581Z,78.52
2023-03-10T05:31:26.654Z,78.53
2023-03-10T05:32:54.791Z,78.49
2023-03-10T05:34:18.952Z,78.49
2023-03-10T05:35:43.165Z,78.46
2023-03-10T05:37:06.064Z,78.47
2023-03-10T05:38:27.990Z,78.34
2023-03-10T05:39:51.093Z,78.58
2023-03-10T05:41:16.043Z,78.47
2023-03-10T05:42:40.273Z,78.29
2023-03-10T05:44:02.702Z,78.20
2023-03-10T05:45:25.532Z,78.27
2023-03-10T05:46:48.326Z,78.35
2023-03-10T05:48:11.754Z,78.33
2023-03-10T05:49:37.448Z,78.32
2023-03-10T05:51:03.981Z,78.28
2023-03-10T05:52:26.261Z,78.31
2023-03-10T05:53:48.435Z,78.24
2023-03-10T05:55:18.775Z,78.20
2023-03-10T05:56:40.495Z,78.20
2023-03-10T05:58:02.955Z,78.30
2023-03-10T05:59:25.875Z,78.19
2023-03-10T06:00:48.163Z,78.25
2023-03-10T06:02:12.512Z,77.92
2023-03-10T06:03:34.368Z,78.11
2023-03-10T06:04:58.470Z,78.05
2023-03-10T06:06:20.911Z,77.99
2023-03-10T06:07:42.562Z,78.34
2023-03-10T06:09:05.937Z,77.82
2023-03-10T06:10:29.614Z,77.74
2023-03-10T06:11:52.250Z,77.58
2023-03-10T06:13:14.810Z,77.36
2023-03-10T06:14:38.453Z,77.17
2023-03-10T06:16:03.166Z,77.05
2023-03-10T06:17:25.679Z,76.86
2023-03-10T06:18:47.848Z,76.68
2023-03-10T06:20:11.349Z,76.43
2023-03-10T06:21:34.113Z,76.46
2023-03-10T06:22:56.858Z,76.19
2023-03-10T06:24:19.279Z,75.66
2023-03-10T06:25:41.778Z,75.68
2023-03-10T06:27:04.459Z,75.45
2023-03-10T06:28:27.807Z,75.41
2023-03-10T06:29:49.817Z,75.24
2023-03-10T06:31:16.412Z,75.11
2023-03-10T06:32:38.795Z,75.08
2023-03-10T06:34:04.245Z,75.03
2023-03-10T06:35:29.520Z,74.99
2023-03-10T06:36:51.740Z,74.81
2023-03-10T06:38:14.337Z,74.76
2023-03-10T06:39:40.392Z,74.66
2023-03-10T06:41:03.209Z,74.50
2023-03-10T06:42:25.534Z,74.86
2023-03-10T06:43:47.924Z,74.56
2023-03-10T06:45:12.366Z,74.89
2023-03-10T06:46:36.232Z,74.79
2023-03-10T06:47:57.441Z,74.90
2023-03-10T06:49:23.928Z,75.05
2023-03-10T06:50:49.401Z,74.77
2023-03-10T06:52:11.584Z,74.89
2023-03-10T06:53:33.760Z,75.02
2023-03-10T06:54:56.490Z,75.03
2023-03-10T06:56:20.136Z,74.96
2023-03-10T06:57:42.941Z,75.13
2023-03-10T06:59:05.486Z,75.12
2023-03-10T07:00:28.169Z,75.08
2023-03-10T07:01:50.539Z,74.86
2023-03-10T07:03:15.907Z,74.94
2023-03-10T07:04:38.157Z,74.75
2023-03-10T07:06:01.981Z,74.90
2023-03-10T07:07:27.262Z,74.83
2023-03-10T07:08:49.693Z,74.92
2023-03-10T07:10:13.247Z,74.81
2023-03-10T07:11:35.978Z,74.71
2023-03-10T07:12:59.157Z,74.70
2023-03-10T07:14:21.844Z,74.60
2023-03-10T07:15:45.558Z,74.21
2023-03-10T07:17:06.902Z,74.14
2023-03-10T07:18:29.815Z,74.17
2023-03-10T07:19:53.131Z,73.92
2023-03-10T07:21:22.508Z,74.08
2023-03-10T07:22:45.973Z,74.17
2023-03-10T07:24:08.391Z,73.65
2023-03-10T07:25:30.827Z,73.60
2023-03-10T07:26:53.151Z,73.31
2023-03-10T07:28:16.054Z,73.17
2023-03-10T07:29:41.994Z,73.27
2023-03-10T07:31:05.868Z,72.93
2023-03-10T07:32:28.730Z,72.87
2023-03-10T07:33:51.548Z,72.73
2023-03-10T07:35:15.514Z,72.79
2023-03-10T07:36:39.624Z,72.27
2023-03-10T07:38:02.061Z,72.29
2023-03-10T07:39:30.888Z,72.14
2023-03-10T07:40:53.135Z,72.23
2023-03-10T07:42:15.494Z,71.71
2023-03-10T07:43:38.598Z,71.39
2023-03-10T07:45:02.608Z,71.14
2023-03-10T07:46:25.831Z,70.95
2023-03-10T07:47:52.503Z,70.74
2023-03-10T07:49:14.882Z,70.65
2023-03-10T07:50:37.605Z,70.21
2023-03-10T07:52:01.393Z,70.06
2023-03-10T07:53:25.477Z,69.90
2023-03-10T07:54:48.063Z,69.75
2023-03-10T07:56:12.583Z,69.40
2023-03-10T07:57:55.937Z,69.65
2023-03-10T07:59:19.442Z,69.87
2023-03-10T08:00:41.771Z,69.68
2023-03-10T08:02:07.293Z,69.84
2023-03-10T08:03:32.341Z,69.84
2023-03-10T08:05:06.040Z,70.35
2023-03-10T08:06:30.985Z,70.51
2023-03-10T08:07:55.076Z,70.67
2023-03-10T08:09:17.587Z,70.85
2023-03-10T08:10:42.521Z,71.03
2023-03-10T08:12:05.430Z,71.32
2023-03-10T08:13:27.976Z,71.48
2023-03-10T08:14:52.596Z,71.67
2023-03-10T08:16:16.542Z,71.96
2023-03-10T08:17:41.279Z,71.77
2023-03-10T08:19:03.630Z,71.91
2023-03-10T08:20:26.175Z,72.04
2023-03-10T08:21:53.534Z,71.77
2023-03-10T08:23:17.193Z,71.84
2023-03-10T08:24:40.424Z,71.60
2023-03-10T08:26:06.842Z,71.46
2023-03-10T08:27:29.408Z,71.17
2023-03-10T08:28:51.907Z,71.15
2023-03-10T08:30:13.923Z,70.77
2023-03-10T08:31:36.493Z,70.68
2023-03-10T08:32:57.834Z,70.46
2023-03-10T08:34:28.005Z,70.00
2023-03-10T08:35:54.130Z,70.29
2023-03-10T08:37:16.929Z,69.95
2023-03-10T08:38:41.141Z,69.76
2023-03-10T08:40:08.307Z,69.68
2023-03-10T08:41:44.510Z,69.71
2023-03-10T08:43:10.070Z,69.61
2023-03-10T08:44:38.233Z,69.48
2023-03-10T08:46:01.934Z,69.46
2023-03-10T08:47:26.689Z,69.29
2023-03-10T08:48:52.988Z,69.15
2023-03-10T08:50:15.265Z,69.58
2023-03-10T08:51:37.797Z,69.21
2023-03-10T08:53:00.234Z,68.94
2023-03-10T08:54:25.098Z,68.75
2023-03-10T08:55:48.790Z,68.77
2023-03-10T08:57:12.473Z,68.47
2023-03-10T08:58:35.989Z,68.14
2023-03-10T08:59:58.814Z,67.75
2023-03-10T09:01:24.434Z,67.40
2023-03-10T09:02:47.120Z,67.14
2023-03-10T09:04:11.013Z,67.01
2023-03-10T09:05:36.665Z,66.42
2023-03-10T09:07:07.101Z,66.37
2023-03-10T09:08:41.510Z,66.39
2023-03-10T09:10:11.302Z,66.43
2023-03-10T09:11:48.975Z,66.30
2023-03-10T09:13:16.492Z,66.08
2023-03-10T09:15:04.094Z,65.99
2023-03-10T09:16:26.949Z,65.84
2023-03-10T09:17:52.461Z,65.83
2023-03-10T09:19:15.707Z,66.19
2023-03-10T09:20:38.353Z,66.03
2023-03-10T09:22:00.927Z,65.79
2023-03-10T09:23:23.483Z,65.63
2023-03-10T09:24:49.994Z,65.54
2023-03-10T09:26:14.864Z,65.39
2023-03-10T09:27:37.986Z,65.37
2023-03-10T09:29:00.845Z,65.28
2023-03-10T09:30:22.931Z,65.05
2023-03-10T09:31:45.803Z,66.18
2023-03-10T09:33:12.703Z,66.16
2023-03-10T09:34:41.441Z,65.80
2023-03-10T09:36:07.448Z,65.50
2023-03-10T09:37:39.939Z,65.41
2023-03-10T09:39:03.479Z,65.40
2023-03-10T09:40:27.965Z,65.46
2023-03-10T09:42:26.064Z,65.19
2023-03-10T09:44:07.939Z,66.03
2023-03-10T09:45:43.346Z,65.58
2023-03-10T09:47:23.595Z,65.73
2023-03-10T09:48:53.610Z,65.76
2023-03-10T09:50:28.942Z,65.61
2023-03-10T09:51:54.560Z,65.82
2023-03-10T09:53:40.785Z,65.86
2023-03-10T09:55:07.624Z,66.07
2023-03-10T09:56:34.074Z,66.06
2023-03-10T09:57:59.546Z,65.72
2023-03-10T09:59:31.986Z,65.47
2023-03-10T10:00:54.524Z,65.27
2023-03-10T10:02:23.919Z,65.00
2023-03-10T10:03:53.160Z,65.15
2023-03-10T10:05:26.676Z,64.93
2023-03-10T10:06:52.465Z,64.86
2023-03-10T10:08:23.150Z,64.35
2023-03-10T10:09:48.216Z,64.41
2023-03-10T10:11:16.746Z,64.05
2023-03-10T10:12:43.764Z,63.73
2023-03-10T10:14:30.525Z,63.77
2023-03-10T10:16:21.492Z,63.52
2023-03-10T10:18:18.621Z,63.43
2023-03-10T10:19:43.226Z,63.28
2023-03-10T10:21:13.091Z,62.71
2023-03-10T10:22:42.555Z,62.75
2023-03-10T10:24:08.580Z,62.57
2023-03-10T10:25:33.508Z,62.44
2023-03-10T10:26:58.712Z,62.15
2023-03-10T10:28:28.534Z,62.02
2023-03-10T10:29:53.824Z,63.20
2023-03-10T10:31:26.509Z,62.37
2023-03-10T10:32:58.971Z,61.98
2023-03-10T10:34:29.617Z,61.76
2023-03-10T10:36:03.589Z,61.20
2023-03-10T10:37:38.199Z,61.01
2023-03-10T10:39:03.117Z,60.88
2023-03-10T10:40:28.852Z,60.83
2023-03-10T10:41:54.158Z,60.70
2023-03-10T10:43:24.330Z,60.26
2023-03-10T10:44:50.342Z,60.32
2023-03-10T10:46:15.332Z,59.85
2023-03-10T10:47:52.789Z,59.67
2023-03-10T10:49:24.094Z,59.43
2023-03-10T10:50:55.295Z,59.45
2023-03-10T10:52:28.097Z,59.45
2023-03-10T10:53:55.121Z,59.25
2023-03-10T10:55:35.810Z,58.78
2023-03-10T10:57:01.979Z,58.96
2023-03-10T10:58:31.513Z,58.56
2023-03-10T11:00:18.738Z,58.60
2023-03-10T11:02:07.225Z,58.54
2023-03-10T11:03:54.281Z,58.48
2023-03-10T11:05:23.181Z,58.78
2023-03-10T11:06:52.350Z,58.49
2023-03-10T11:08:30.955Z,57.76
2023-03-10T11:09:57.633Z,57.67
2023-03-10T11:11:33.842Z,57.06
2023-03-10T11:13:03.466Z,56.95
2023-03-10T11:14:42.619Z,56.23
2023-03-10T11:16:23.391Z,55.84
2023-03-10T11:17:55.353Z,55.58
2023-03-10T11:19:40.558Z,55.70
2023-03-10T11:21:22.554Z,55.51
2023-03-10T11:22:59.452Z,55.76
2023-03-10T11:24:37.735Z,55.23
2023-03-10T11:26:14.318Z,55.06
2023-03-10T11:28:01.636Z,54.76
2023-03-10T11:29:40.156Z,54.74
2023-03-10T11:31:29.667Z,54.33
2023-03-10T11:33:27.754Z,54.77
2023-03-10T11:34:58.485Z,54.65
2023-03-10T11:36:55.038Z,54.56
2023-03-10T11:38:32.709Z,54.59
2023-03-10T11:40:09.327Z,54.63
2023-03-10T11:41:40.358Z,54.75
2023-03-10T11:43:08.596Z,54.91
2023-03-10T11:44:53.410Z,54.87
2023-03-10T11:46:29.026Z,55.12
2023-03-10T11:48:07.117Z,55.28
2023-03-10T11:49:37.270Z,55.26
2023-03-10T11:51:23.359Z,55.46
2023-03-10T11:52:47.908Z,55.88
2023-03-10T11:54:19.607Z,55.90
2023-03-10T11:55:48.732Z,55.97
2023-03-10T11:57:16.808Z,55.96
2023-03-10T11:58:51.526Z,55.87
2023-03-10T12:02:40.155Z,56.73
2023-03-10T12:04:14.376Z,56.86
2023-03-10T12:05:46.738Z,56.66
2023-03-10T12:07:21.727Z,56.51
2023-03-10T12:08:49.468Z,56.33
2023-03-10T12:10:24.851Z,56.87
2023-03-10T12:11:49.930Z,57.17
2023-03-10T12:13:34.784Z,56.60
2023-03-10T12:15:21.442Z,56.46
2023-03-10T12:16:45.481Z,56.05
2023-03-10T12:18:09.697Z,55.57
2023-03-10T12:19:34.838Z,55.74
2023-03-10T12:21:19.303Z,55.33
2023-03-10T12:22:47.874Z,54.96
2023-03-10T12:24:46.938Z,54.78
2023-03-10T12:26:14.676Z,54.61
2023-03-10T12:28:14.807Z,54.47
2023-03-10T12:29:42.276Z,54.10
2023-03-10T12:31:17.119Z,54.00
2023-03-10T12:32:56.025Z,53.56
2023-03-10T12:34:24.164Z,53.36
2023-03-10T12:35:52.960Z,53.01
2023-03-10T12:37:24.292Z,52.64
2023-03-10T12:39:03.286Z,52.67
2023-03-10T12:40:52.518Z,52.50
2023-03-10T12:42:37.065Z,52.95
2023-03-10T12:43:59.965Z,52.98
2023-03-10T12:45:28.848Z,52.83
2023-03-10T12:46:54.675Z,52.66
2023-03-10T12:48:23.867Z,52.19
2023-03-10T12:49:58.916Z,51.90
2023-03-10T12:51:37.904Z,51.98
2023-03-10T12:53:29.361Z,51.76
2023-03-10T12:55:16.650Z,51.95
2023-03-10T12:56:43.956Z,52.16
2023-03-10T12:58:18.273Z,52.14
2023-03-10T12:59:54.239Z,52.48
2023-03-10T13:01:22.064Z,52.58
2023-03-10T13:02:55.910Z,52.18
2023-03-10T13:04:22.131Z,51.97
2023-03-10T13:06:00.905Z,51.68
2023-03-10T13:07:22.430Z,51.64
2023-03-10T13:08:46.710Z,51.29
2023-03-10T13:10:23.522Z,51.05
2023-03-10T13:11:51.065Z,51.18
2023-03-10T13:13:24.215Z,51.03
2023-03-10T13:14:54.501Z,50.88
2023-03-10T13:16:20.175Z,50.84
2023-03-10T13:17:44.886Z,50.78
2023-03-10T13:19:07.573Z,50.78
2023-03-10T13:20:31.092Z,50.61
2023-03-10T13:21:53.958Z,51.01
2023-03-10T13:23:22.065Z,50.61
2023-03-10T13:24:44.664Z,50.62
2023-03-10T13:26:22.046Z,50.49
2023-03-10T13:27:47.338Z,50.77
2023-03-10T13:29:19.578Z,50.83
2023-03-10T13:30:43.077Z,51.04
2023-03-10T13:32:15.511Z,51.29
2023-03-10T13:33:52.336Z,51.08
2023-03-10T13:35:25.986Z,50.79
2023-03-10T13:36:50.531Z,50.64
2023-03-10T13:38:22.151Z,50.22
2023-03-10T13:39:50.311Z,50.25
2023-03-10T13:41:16.557Z,49.96
2023-03-10T13:42:47.838Z,49.75
2023-03-10T13:44:28.476Z,49.46
2023-03-10T13:45:56.954Z,49.63
2023-03-10T13:47:27.793Z,49.45
2023-03-10T13:49:04.490Z,49.68
2023-03-10T13:50:27.095Z,49.64
2023-03-10T13:52:12.501Z,50.20
2023-03-10T13:53:40.298Z,50.01
2023-03-10T13:55:30.445Z,49.86
2023-03-10T13:57:16.301Z,49.84
2023-03-10T13:58:41.601Z,49.85
2023-03-10T14:00:17.322Z,49.58
2023-03-10T14:02:02.716Z,49.59
2023-03-10T14:03:25.122Z,49.78
2023-03-10T14:04:50.512Z,49.75
2023-03-10T14:06:17.467Z,49.80
2023-03-10T14:07:41.041Z,49.74
2023-03-10T14:09:29.303Z,49.55
2023-03-10T14:10:54.884Z,50.03
2023-03-10T14:12:37.210Z,50.34
2023-03-10T14:14:00.429Z,50.09
2023-03-10T14:15:27.574Z,50.63
2023-03-10T14:16:58.579Z,50.50
2023-03-10T14:18:21.181Z,50.64
2023-03-10T14:19:52.424Z,50.58
2023-03-10T14:21:26.811Z,50.90
2023-03-10T14:22:49.643Z,50.94
2023-03-10T14:24:22.696Z,51.28
2023-03-10T14:25:45.580Z,51.40
2023-03-10T14:27:10.400Z,50.99
2023-03-10T14:28:34.884Z,51.19
2023-03-10T14:30:03.949Z,51.28
2023-03-10T14:31:26.777Z,51.33
2023-03-10T14:32:49.615Z,51.39
2023-03-10T14:34:14.861Z,51.35
2023-03-10T14:35:38.230Z,51.30
2023-03-10T14:37:00.172Z,51.70
2023-03-10T14:38:22.348Z,52.04
2023-03-10T14:39:55.693Z,52.06
2023-03-10T14:41:24.498Z,52.15
2023-03-10T14:42:49.006Z,52.07
2023-03-10T14:44:21.067Z,51.77
2023-03-10T14:45:44.604Z,52.26
2023-03-10T14:47:07.638Z,52.06
2023-03-10T14:48:31.202Z,52.16
2023-03-10T14:49:55.426Z,52.50
2023-03-10T14:51:34.993Z,52.52
2023-03-10T14:52:58.938Z,52.89
2023-03-10T14:54:23.811Z,52.81
2023-03-10T14:55:53.945Z,52.75
2023-03-10T14:57:20.329Z,53.10
2023-03-10T14:59:10.056Z,52.89
2023-03-10T15:00:36.843Z,52.56
2023-03-10T15:02:06.478Z,52.53
2023-03-10T15:03:30.629Z,52.84
2023-03-10T15:04:57.461Z,52.82
2023-03-10T15:06:25.852Z,52.57
2023-03-10T15:07:48.986Z,52.69
2023-03-10T15:09:14.422Z,52.77
2023-03-10T15:10:41.391Z,52.70
2023-03-10T15:12:08.026Z,52.81
2023-03-10T15:13:36.059Z,52.74
2023-03-10T15:15:00.283Z,52.75
2023-03-10T15:16:32.817Z,52.74
2023-03-10T15:17:56.398Z,52.48
2023-03-10T15:19:25.085Z,52.16
2023-03-10T15:20:49.672Z,52.51
2023-03-10T15:22:18.575Z,52.73
2023-03-10T15:23:47.329Z,52.76
2023-03-10T15:25:11.226Z,52.75
2023-03-10T15:26:36.959Z,53.14
2023-03-10T15:27:59.504Z,53.29
2023-03-10T15:29:23.742Z,53.65
2023-03-10T15:30:46.472Z,53.67
2023-03-10T15:32:11.898Z,53.68
2023-03-10T15:33:36.382Z,53.70
2023-03-10T15:34:58.801Z,53.84
2023-03-10T15:36:21.082Z,53.88
2023-03-10T15:37:46.361Z,53.92
2023-03-10T15:39:14.226Z,53.96
2023-03-10T15:40:41.499Z,54.03
2023-03-10T15:42:13.783Z,54.18
2023-03-10T15:43:35.729Z,54.36
2023-03-10T15:44:57.859Z,54.50
2023-03-10T15:46:20.696Z,54.85
2023-03-10T15:47:44.693Z,55.02
2023-03-10T15:49:09.892Z,54.97
2023-03-10T15:50:31.949Z,55.07
2023-03-10T15:51:56.347Z,55.29
2023-03-10T15:53:23.790Z,55.32
2023-03-10T15:54:49.705Z,55.47
2023-03-10T15:56:37.984Z,55.47
2023-03-10T15:58:00.240Z,55.63
2023-03-10T15:59:22.446Z,55.47
2023-03-10T16:00:44.984Z,55.74
2023-03-10T16:02:07.126Z,55.66
2023-03-10T16:03:30.685Z,55.70
2023-03-10T16:04:53.226Z,56.09
2023-03-10T16:06:16.098Z,55.91
2023-03-10T16:07:38.266Z,55.92
2023-03-10T16:09:00.551Z,56.14
2023-03-10T16:10:23.003Z,56.13
2023-03-10T16:11:46.998Z,56.10
2023-03-10T16:13:21.616Z,56.22
2023-03-10T16:14:57.109Z,56.44
2023-03-10T16:16:39.547Z,56.51
2023-03-10T16:18:02.045Z,56.59
2023-03-10T16:19:26.212Z,56.86
2023-03-10T16:20:58.591Z,56.55
2023-03-10T16:22:23.538Z,56.98
2023-03-10T16:23:52.045Z,56.87
2023-03-10T16:27:03.840Z,57.17
2023-03-10T16:28:26.606Z,57.35
2023-03-10T16:29:54.929Z,57.58
2023-03-10T16:31:19.860Z,57.53
2023-03-10T16:32:46.532Z,57.59
2023-03-10T16:34:09.279Z,57.76
2023-03-10T16:35:33.351Z,58.14
2023-03-10T16:36:56.684Z,58.16
2023-03-10T16:38:25.601Z,57.87
2023-03-10T16:39:51.798Z,58.28
2023-03-10T16:41:15.024Z,57.98
2023-03-10T16:42:38.189Z,58.02
2023-03-10T16:44:02.291Z,58.00
2023-03-10T16:45:33.355Z,58.05
2023-03-10T16:47:05.321Z,58.01
2023-03-10T16:48:49.352Z,58.15
2023-03-10T16:50:19.126Z,58.07
2023-03-10T16:51:45.037Z,58.24
2023-03-10T16:53:24.053Z,58.45
2023-03-10T16:54:50.233Z,58.28
2023-03-10T16:56:19.003Z,58.19
2023-03-10T16:57:50.235Z,58.27
2023-03-10T16:59:24.341Z,58.34
2023-03-10T17:00:50.891Z,58.47
2023-03-10T17:02:35.596Z,58.94
2023-03-10T17:03:59.166Z,58.85
2023-03-10T17:05:25.775Z,58.70
2023-03-10T17:06:52.554Z,58.96
2023-03-10T17:08:14.770Z,58.96
2023-03-10T17:09:38.311Z,59.40
2023-03-10T17:11:00.880Z,59.36
2023-03-10T17:12:23.038Z,59.53
2023-03-10T17:13:47.484Z,59.81
2023-03-10T17:15:13.930Z,60.04
2023-03-10T17:16:39.772Z,60.16
2023-03-10T17:18:02.457Z,60.20
2023-03-10T17:19:30.314Z,60.33
2023-03-10T17:20:57.394Z,60.55
2023-03-10T17:22:23.279Z,60.71
2023-03-10T17:23:55.853Z,60.92
2023-03-10T17:25:42.252Z,60.88
2023-03-10T17:27:12.082Z,60.66
2023-03-10T17:28:43.397Z,60.67
2023-03-10T17:31:04.302Z,60.92
2023-03-10T17:33:43.620Z,60.67
2023-03-10T17:35:26.238Z,60.60
2023-03-10T17:40:15.597Z,60.24
2023-03-10T17:42:16.537Z,60.15
2023-03-10T17:43:51.216Z,60.21
2023-03-10T17:45:17.348Z,60.19
2023-03-10T17:46:43.753Z,60.63
2023-03-10T17:48:08.950Z,60.48
2023-03-10T17:49:33.735Z,60.53
2023-03-10T17:50:55.074Z,60.60
2023-03-10T17:52:17.547Z,60.74
2023-03-10T17:53:41.739Z,60.71
2023-03-10T17:55:21.802Z,60.69
2023-03-10T17:56:46.949Z,60.92
2023-03-10T17:58:12.498Z,60.85
2023-03-10T17:59:39.264Z,60.80
2023-03-10T18:01:07.185Z,61.05
2023-03-10T18:02:34.224Z,60.97
2023-03-10T18:04:06.774Z,61.18
2023-03-10T18:07:30.109Z,61.36
2023-03-10T18:07:57.500Z,60.93
2023-03-10T18:11:53.757Z,60.63
2023-03-10T18:13:40.408Z,60.37
2023-03-10T18:15:37.941Z,60.26
2023-03-10T18:23:10.612Z,60.08
2023-03-10T18:25:34.247Z,60.00
2023-03-10T18:28:01.000Z,60.14
2023-03-10T18:29:52.626Z,59.80
2023-03-10T18:31:28.155Z,59.89
2023-03-10T18:32:56.418Z,59.85
2023-03-10T18:34:19.790Z,59.67
2023-03-10T18:35:49.545Z,59.62
2023-03-10T18:38:30.711Z,59.43
2023-03-10T18:40:00.435Z,59.56
2023-03-10T18:41:51.812Z,59.35
2023-03-10T18:43:14.539Z,59.29
2023-03-10T18:44:42.058Z,59.27
2023-03-10T18:46:38.354Z,59.27
2023-03-10T18:48:02.254Z,59.27
2023-03-10T18:49:29.937Z,59.31
2023-03-10T18:50:55.565Z,59.33
2023-03-10T18:53:16.872Z,58.96
2023-03-10T18:54:43.710Z,59.29
2023-03-10T18:56:13.207Z,59.43
2023-03-10T18:58:40.099Z,59.27
2023-03-10T19:00:21.617Z,59.22
2023-03-10T19:01:59.832Z,59.34
2023-03-10T19:03:23.121Z,59.21
2023-03-10T19:04:49.937Z,59.35
2023-03-10T19:06:16.350Z,59.32
2023-03-10T19:07:43.392Z,59.22
2023-03-10T19:09:32.476Z,59.17